Lomnicky Stit, Slovakia

05:30 CET 25. Únor 2017 (GMT +0100)
Droga do Olczy | | Change Station

Výška 3011 ft 49.29 °N, 19.98 °E | Updated 4 minutes ago

Jasno
Jasno
19.8 °F
Pocit jako 20 °F
S
0.6
Vítr proměnlivý Vítr od východní
Gusts 1.2 mil/h

Dnes
Vysoké -- | Nízké -- °F
--% Možnost srážek
Včera
Vysoké -- | Nízké -- °F
Precip. -- inčů
Tlak 29.95 inčů
Viditelnost 6.2 mílí
Zataženo Nemnoho 400 ft
Ochlazování větrem 20 °F
Rosný bod 12 °F
Vlhkost 72%
Dešťové srážky 0.00 inčů
Sněhová pokrývka Není k dispozici
6:29 AM 5:15 PM
Ubývající srpek, 2% visible
METAR LZTT 250400Z 27005KT 240V310 9999 FEW004 M04/M09 Q1014
Tlak 29.95 inčů
Viditelnost 6.2 mílí
Zataženo Nemnoho 400 ft
Ochlazování větrem 20 °F
Rosný bod 12 °F
Vlhkost 72%
Dešťové srážky 0.00 inčů
Sněhová pokrývka Není k dispozici
6:29 AM 5:15 PM
Ubývající srpek, 2% visible
METAR LZTT 250400Z 27005KT 240V310 9999 FEW004 M04/M09 Q1014

Get Your Daily Forecast Email!

Thanks for signing up!

Be on the lookout for a verification email in your inbox.

You'll start receiving the daily forecast at 8 AM.

×

10-Day Weather Forecast

×

Almanac

Astronomie

Feb. 25, 2017 Východ Západ
Skutečný čas
Občanský soumrak
Námořní soumrak
Astronomický soumrak
Měsíc
Délka denního světla
Délka dne
Tomorrow will be .
, % of the Moon is Illuminated

Dnešní extrémy

Nejvyšší hodnoty ve státě Nejnižší hodnoty ve státě

Community

WunderPhotos

Upload Photos

1,962,540 snímků staženo!

WunderBlog® & News

Nearby

Kvalita ovzduší

  Kvalita ovzduší Index kvality ovzduší Polutant
Not available.

Výška sněhu

Station Hloubka Nadmořská výška

Seizmická činnost

Město Distance Mag. Čas & datum
Minimální zobrazený rozsah je 2.5.

Pobřežní teplota vody

Lokalita Teplota

Stations

Poblíž povětrnostní stanice

Lokace stanice Tepl. Ochlazování větrem Rosný bod Vlhkost Vítr Precip. Výška Čas hlášení Typ